createdAt,value
2019-04-07T00:01:41.176Z,20.47
2019-04-07T00:04:46.684Z,19.90
2019-04-07T00:07:51.969Z,20.03
2019-04-07T00:10:57.816Z,21.27
2019-04-07T00:14:04.825Z,20.60
2019-04-07T00:17:10.500Z,21.97
2019-04-07T00:20:15.815Z,22.30
2019-04-07T00:23:21.337Z,21.47
2019-04-07T00:26:26.829Z,21.80
2019-04-07T00:29:31.995Z,22.10
2019-04-07T00:32:37.249Z,23.07
2019-04-07T00:35:42.610Z,22.10
2019-04-07T00:38:48.277Z,22.13
2019-04-07T00:41:53.999Z,23.00
2019-04-07T00:44:59.700Z,22.50
2019-04-07T00:48:05.731Z,22.57
2019-04-07T00:51:11.178Z,22.73
2019-04-07T00:54:16.449Z,23.20
2019-04-07T00:57:21.927Z,23.27
2019-04-07T01:00:29.099Z,21.00
2019-04-07T01:03:34.912Z,19.87
2019-04-07T01:06:40.623Z,22.83
2019-04-07T01:09:46.418Z,24.53
2019-04-07T01:12:51.481Z,22.20
2019-04-07T01:15:57.143Z,22.47
2019-04-07T01:19:02.485Z,22.77
2019-04-07T01:22:09.042Z,22.63
2019-04-07T01:25:14.762Z,24.97
2019-04-07T01:28:20.062Z,22.33
2019-04-07T01:31:25.219Z,20.77
2019-04-07T01:34:31.556Z,22.23
2019-04-07T01:37:36.914Z,22.57
2019-04-07T01:40:44.345Z,21.97
2019-04-07T01:44:11.391Z,21.80
2019-04-07T01:47:24.307Z,21.33
2019-04-07T01:50:48.451Z,21.53
2019-04-07T01:54:21.823Z,22.30
2019-04-07T01:57:45.271Z,23.33
2019-04-07T02:01:09.552Z,22.87
2019-04-07T02:04:32.534Z,24.07
2019-04-07T02:07:57.283Z,23.40
2019-04-07T02:11:21.138Z,23.43
2019-04-07T02:14:52.154Z,26.10
2019-04-07T02:18:17.997Z,24.17
2019-04-07T02:21:41.049Z,23.67
2019-04-07T02:24:54.435Z,23.67
2019-04-07T02:28:37.201Z,23.13
2019-04-07T02:31:52.401Z,22.13
2019-04-07T02:35:12.726Z,23.80
2019-04-07T02:38:43.104Z,21.97
2019-04-07T02:42:16.833Z,20.47
2019-04-07T02:45:36.721Z,21.70
2019-04-07T02:48:51.247Z,23.17
2019-04-07T02:52:18.541Z,25.00
2019-04-07T02:55:30.161Z,24.60
2019-04-07T02:58:47.780Z,22.77
2019-04-07T03:02:14.201Z,23.73
2019-04-07T03:05:36.121Z,24.40
2019-04-07T03:09:00.466Z,23.00
2019-04-07T03:12:17.846Z,23.73
2019-04-07T03:15:29.822Z,25.70
2019-04-07T03:19:05.422Z,25.47
2019-04-07T03:22:39.614Z,22.33
2019-04-07T03:26:11.039Z,24.13
2019-04-07T03:29:35.009Z,21.77
2019-04-07T03:33:03.599Z,24.60
2019-04-07T03:36:28.498Z,26.27
2019-04-07T03:40:02.611Z,23.43
2019-04-07T03:43:30.418Z,20.77
2019-04-07T03:46:55.142Z,21.47
2019-04-07T03:50:18.652Z,22.90
2019-04-07T03:53:37.639Z,22.63
2019-04-07T03:57:11.357Z,23.27
2019-04-07T04:01:17.511Z,22.73
2019-04-07T04:04:47.547Z,23.60
2019-04-07T04:08:02.725Z,22.30
2019-04-07T04:11:20.404Z,20.97
2019-04-07T04:14:47.686Z,22.70
2019-04-07T04:17:53.949Z,23.67
2019-04-07T04:20:59.622Z,23.80
2019-04-07T04:24:05.977Z,21.93
2019-04-07T04:27:12.900Z,22.13
2019-04-07T04:30:18.978Z,25.67
2019-04-07T04:33:24.171Z,26.60
2019-04-07T04:36:29.450Z,23.87
2019-04-07T04:39:35.484Z,22.77
2019-04-07T04:42:40.783Z,24.37
2019-04-07T04:45:46.281Z,22.53
2019-04-07T04:48:52.415Z,21.43
2019-04-07T04:51:58.678Z,23.23
2019-04-07T04:55:04.149Z,22.63
2019-04-07T04:58:09.992Z,21.20
2019-04-07T05:01:16.296Z,21.93
2019-04-07T05:04:21.750Z,20.13
2019-04-07T05:07:26.999Z,19.70
2019-04-07T05:10:32.294Z,21.77
2019-04-07T05:13:37.486Z,20.27
2019-04-07T05:16:42.672Z,18.77
2019-04-07T05:19:47.812Z,16.23
2019-04-07T05:22:53.464Z,17.03
2019-04-07T05:25:59.229Z,20.47
2019-04-07T05:29:04.755Z,16.07
2019-04-07T05:32:09.892Z,14.87
2019-04-07T05:35:15.163Z,15.27
2019-04-07T05:38:20.296Z,14.40
2019-04-07T05:41:26.153Z,14.30
2019-04-07T05:44:31.365Z,13.93
2019-04-07T05:47:36.577Z,16.53
2019-04-07T05:50:41.690Z,14.43
2019-04-07T05:53:48.310Z,14.57
2019-04-07T05:56:54.181Z,15.10
2019-04-07T06:00:01.317Z,14.73
2019-04-07T06:03:08.470Z,14.57
2019-04-07T06:06:13.591Z,15.67
2019-04-07T06:09:20.579Z,15.03
2019-04-07T06:12:26.155Z,14.70
2019-04-07T06:15:31.357Z,14.57
2019-04-07T06:18:36.887Z,15.10
2019-04-07T06:21:46.157Z,14.70
2019-04-07T06:24:48.897Z,14.50
2019-04-07T06:27:54.303Z,15.13
2019-04-07T06:31:01.136Z,17.00
2019-04-07T06:34:10.101Z,15.13
2019-04-07T06:37:13.393Z,14.80
2019-04-07T06:40:20.697Z,15.87
2019-04-07T06:43:25.811Z,15.00
2019-04-07T06:46:40.188Z,15.17
2019-04-07T06:50:07.421Z,14.70
2019-04-07T06:53:30.307Z,14.83
2019-04-07T06:56:43.590Z,15.23
2019-04-07T07:00:20.627Z,17.10
2019-04-07T07:03:39.528Z,16.07
2019-04-07T07:07:18.119Z,16.07
2019-04-07T07:10:41.885Z,15.37
2019-04-07T07:14:30.004Z,13.30
2019-04-07T07:17:36.692Z,13.37
2019-04-07T07:21:01.726Z,13.53
2019-04-07T07:24:07.131Z,10.60
2019-04-07T07:27:12.437Z,9.33
2019-04-07T07:30:19.353Z,8.87
2019-04-07T07:33:24.514Z,7.10
2019-04-07T07:36:29.627Z,6.37
2019-04-07T07:39:35.100Z,5.90
2019-04-07T07:42:40.919Z,6.70
2019-04-07T07:45:48.160Z,6.00
2019-04-07T07:48:58.791Z,4.90
2019-04-07T07:52:01.460Z,4.77
2019-04-07T07:55:07.125Z,4.60
2019-04-07T07:58:12.433Z,4.77
2019-04-07T08:01:17.906Z,5.00
2019-04-07T08:04:26.512Z,4.80
2019-04-07T08:07:30.258Z,4.30
2019-04-07T08:10:36.292Z,4.70
2019-04-07T08:13:44.534Z,4.23
2019-04-07T08:16:49.050Z,4.00
2019-04-07T08:19:54.345Z,4.87
2019-04-07T08:23:00.602Z,4.03
2019-04-07T08:26:07.280Z,3.83
2019-04-07T08:29:13.818Z,3.93
2019-04-07T08:32:19.837Z,3.80
2019-04-07T08:35:25.113Z,4.13
2019-04-07T08:38:31.072Z,3.87
2019-04-07T08:41:39.710Z,3.70
2019-04-07T08:44:45.184Z,3.53
2019-04-07T08:47:51.735Z,3.93
2019-04-07T08:50:59.838Z,3.70
2019-04-07T08:54:05.799Z,3.60
2019-04-07T08:57:11.005Z,4.00
2019-04-07T09:00:20.376Z,3.57
2019-04-07T09:03:25.545Z,3.50
2019-04-07T09:06:31.560Z,3.20
2019-04-07T09:09:40.390Z,3.77
2019-04-07T09:12:44.077Z,2.90
2019-04-07T09:16:00.019Z,3.30
2019-04-07T09:19:15.264Z,3.37
2019-04-07T09:22:40.661Z,3.73
2019-04-07T09:25:47.977Z,3.23
2019-04-07T09:29:12.753Z,3.07
2019-04-07T09:32:46.213Z,3.40
2019-04-07T09:36:04.694Z,2.93
2019-04-07T09:39:32.651Z,2.93
2019-04-07T09:42:58.734Z,3.80
2019-04-07T09:46:32.220Z,3.00
2019-04-07T09:49:49.179Z,3.70
2019-04-07T09:53:23.037Z,3.10
2019-04-07T09:56:47.371Z,3.40
2019-04-07T10:00:09.640Z,3.23
2019-04-07T10:03:52.249Z,3.30
2019-04-07T10:07:09.588Z,3.10
2019-04-07T10:10:38.304Z,2.90
2019-04-07T10:14:11.586Z,2.57
2019-04-07T10:17:38.359Z,2.93
2019-04-07T10:21:05.495Z,2.80
2019-04-07T10:24:30.327Z,3.10
2019-04-07T10:28:07.217Z,2.57
2019-04-07T10:31:20.861Z,2.73
2019-04-07T10:34:46.007Z,2.20
2019-04-07T10:38:22.317Z,2.70
2019-04-07T10:42:02.533Z,2.27
2019-04-07T10:45:15.317Z,2.17
2019-04-07T10:48:26.941Z,2.00
2019-04-07T10:51:42.042Z,2.33
2019-04-07T10:54:53.613Z,2.43
2019-04-07T10:58:19.820Z,2.00
2019-04-07T11:01:36.237Z,2.70
2019-04-07T11:05:09.667Z,2.80
2019-04-07T11:08:52.144Z,2.77
2019-04-07T11:12:15.539Z,2.53
2019-04-07T11:15:45.831Z,1.80
2019-04-07T11:19:08.937Z,2.20
2019-04-07T11:22:33.121Z,2.00
2019-04-07T11:25:54.913Z,2.47
2019-04-07T11:29:08.458Z,2.30
2019-04-07T11:32:45.375Z,2.37
2019-04-07T11:36:18.032Z,2.20
2019-04-07T11:39:40.327Z,2.10
2019-04-07T11:42:50.786Z,2.47
2019-04-07T11:46:18.911Z,2.40
2019-04-07T11:49:46.184Z,2.40
2019-04-07T11:53:16.720Z,2.40
2019-04-07T11:56:37.204Z,2.17
2019-04-07T11:59:52.364Z,2.20
2019-04-07T12:03:05.035Z,2.13
2019-04-07T12:06:46.597Z,2.20
2019-04-07T12:10:18.674Z,2.73
2019-04-07T12:13:40.678Z,1.90
2019-04-07T12:17:06.927Z,2.83
2019-04-07T12:20:30.943Z,2.40
2019-04-07T12:23:54.219Z,2.60
2019-04-07T12:27:20.355Z,2.30
2019-04-07T12:30:52.988Z,2.17
2019-04-07T12:34:16.697Z,2.00
2019-04-07T12:37:42.332Z,2.00
2019-04-07T12:41:14.893Z,2.40
2019-04-07T12:44:41.821Z,2.10
2019-04-07T12:48:11.773Z,4.40
2019-04-07T12:51:35.954Z,2.00
2019-04-07T12:55:03.011Z,1.90
2019-04-07T12:58:32.371Z,2.13
2019-04-07T13:01:47.078Z,1.90
2019-04-07T13:05:07.563Z,2.33
2019-04-07T13:08:32.144Z,2.00
2019-04-07T13:12:05.923Z,1.90
2019-04-07T13:15:30.289Z,2.00
2019-04-07T13:18:47.547Z,2.03
2019-04-07T13:22:13.324Z,4.23
2019-04-07T13:25:40.748Z,1.77
2019-04-07T13:29:07.807Z,2.10
2019-04-07T13:32:39.367Z,1.70
2019-04-07T13:35:45.245Z,1.90
2019-04-07T13:38:58.853Z,1.60
2019-04-07T13:42:24.875Z,1.80
2019-04-07T13:45:48.103Z,1.60
2019-04-07T13:49:16.093Z,1.67
2019-04-07T13:52:58.996Z,1.90
2019-04-07T13:56:21.440Z,1.50
2019-04-07T13:59:58.847Z,1.30
2019-04-07T14:03:38.664Z,1.93
2019-04-07T14:07:17.629Z,1.50
2019-04-07T14:10:47.198Z,1.97
2019-04-07T14:14:11.126Z,2.00
2019-04-07T14:17:24.767Z,1.80
2019-04-07T14:20:55.159Z,1.67
2019-04-07T14:24:18.676Z,1.53
2019-04-07T14:27:36.253Z,2.40
2019-04-07T14:31:06.584Z,2.07
2019-04-07T14:34:31.468Z,1.93
2019-04-07T14:37:57.203Z,1.70
2019-04-07T14:41:20.603Z,1.67
2019-04-07T14:44:45.643Z,1.50
2019-04-07T14:47:58.901Z,1.83
2019-04-07T14:51:26.537Z,1.80
2019-04-07T14:55:02.805Z,1.57
2019-04-07T14:58:30.283Z,1.50
2019-04-07T15:01:56.631Z,1.57
2019-04-07T15:05:09.048Z,1.60
2019-04-07T15:08:43.134Z,1.77
2019-04-07T15:11:57.648Z,1.80
2019-04-07T15:15:07.560Z,1.50
2019-04-07T15:18:10.177Z,1.40
2019-04-07T15:21:15.658Z,1.67
2019-04-07T15:24:22.642Z,1.60
2019-04-07T15:27:28.315Z,1.50
2019-04-07T15:30:34.659Z,1.87
2019-04-07T15:33:40.826Z,1.33
2019-04-07T15:36:48.441Z,1.50
2019-04-07T15:39:53.984Z,1.23
2019-04-07T15:43:04.295Z,1.50
2019-04-07T15:46:08.418Z,1.20
2019-04-07T15:49:13.574Z,1.50
2019-04-07T15:52:19.607Z,1.30
2019-04-07T15:55:37.119Z,1.40
2019-04-07T15:58:32.089Z,1.50
2019-04-07T16:01:38.538Z,1.40
2019-04-07T16:04:44.113Z,1.50
2019-04-07T16:07:53.046Z,1.80
2019-04-07T16:10:56.127Z,1.50
2019-04-07T16:14:01.620Z,1.33
2019-04-07T16:17:09.547Z,1.40
2019-04-07T16:20:23.244Z,1.43
2019-04-07T16:23:22.213Z,1.50
2019-04-07T16:26:30.195Z,1.30
2019-04-07T16:29:34.955Z,1.30
2019-04-07T16:32:40.341Z,1.30
2019-04-07T16:35:50.834Z,1.80
2019-04-07T16:38:53.228Z,1.20
2019-04-07T16:41:58.583Z,1.30
2019-04-07T16:45:04.947Z,1.60
2019-04-07T16:48:10.816Z,5.90
2019-04-07T16:51:17.899Z,23.03
2019-04-07T16:54:23.396Z,12.57
2019-04-07T16:57:31.441Z,1.30
2019-04-07T17:00:35.735Z,1.53
2019-04-07T17:03:41.946Z,1.60
2019-04-07T17:06:58.488Z,1.37
2019-04-07T17:09:56.451Z,2.93
2019-04-07T17:13:09.256Z,1.50
2019-04-07T17:16:10.111Z,2.33
2019-04-07T17:19:16.326Z,1.60
2019-04-07T17:22:21.505Z,1.70
2019-04-07T17:25:26.951Z,1.53
2019-04-07T17:28:32.484Z,1.50
2019-04-07T17:31:38.114Z,1.87
2019-04-07T17:34:44.954Z,1.60
2019-04-07T17:37:50.967Z,1.50
2019-04-07T17:40:56.218Z,1.10
2019-04-07T17:44:22.081Z,1.30
2019-04-07T17:47:36.716Z,1.30
2019-04-07T17:51:16.619Z,1.30
2019-04-07T17:54:34.503Z,1.40
2019-04-07T17:57:57.620Z,1.50
2019-04-07T18:01:12.711Z,1.50
2019-04-07T18:04:36.446Z,1.60
2019-04-07T18:08:15.867Z,1.70
2019-04-07T18:11:46.920Z,1.40
2019-04-07T18:15:11.658Z,1.70
2019-04-07T18:18:29.099Z,1.60
2019-04-07T18:21:59.755Z,1.60
2019-04-07T18:25:33.291Z,2.00
2019-04-07T18:28:52.712Z,1.83
2019-04-07T18:32:10.208Z,1.90
2019-04-07T18:35:37.724Z,1.77
2019-04-07T18:39:03.149Z,2.00
2019-04-07T18:42:29.392Z,1.90
2019-04-07T18:45:44.051Z,1.83
2019-04-07T18:49:04.682Z,1.80
2019-04-07T18:52:22.665Z,1.90
2019-04-07T18:55:41.875Z,1.97
2019-04-07T18:59:07.517Z,2.07
2019-04-07T19:02:44.205Z,4.10
2019-04-07T19:06:08.707Z,3.00
2019-04-07T19:09:31.166Z,3.17
2019-04-07T19:13:05.669Z,3.17
2019-04-07T19:16:24.244Z,2.80
2019-04-07T19:19:57.062Z,2.90
2019-04-07T19:23:32.696Z,2.37
2019-04-07T19:26:56.309Z,2.50
2019-04-07T19:30:20.735Z,2.40
2019-04-07T19:33:44.014Z,6.20
2019-04-07T19:36:56.079Z,8.70
2019-04-07T19:40:18.872Z,7.33
2019-04-07T19:43:35.160Z,5.60
2019-04-07T19:47:01.457Z,4.87
2019-04-07T19:50:37.035Z,5.70
2019-04-07T19:54:00.814Z,16.20
2019-04-07T19:57:27.876Z,21.97
2019-04-07T20:00:55.115Z,13.37
2019-04-07T20:04:18.510Z,4.47
2019-04-07T20:07:33.157Z,3.47
2019-04-07T20:10:57.776Z,3.40
2019-04-07T20:14:47.318Z,3.20
2019-04-07T20:18:06.996Z,2.57
2019-04-07T20:21:39.054Z,2.33
2019-04-07T20:24:58.465Z,2.63
2019-04-07T20:28:21.573Z,2.47
2019-04-07T20:31:56.017Z,2.77
2019-04-07T20:35:19.107Z,3.40
2019-04-07T20:38:31.174Z,3.20
2019-04-07T20:41:48.049Z,3.33
2019-04-07T20:45:14.156Z,3.50
2019-04-07T20:48:35.929Z,2.80
2019-04-07T20:52:03.007Z,2.67
2019-04-07T20:55:45.436Z,2.97
2019-04-07T20:59:08.591Z,2.70
2019-04-07T21:02:52.954Z,2.83
2019-04-07T21:06:14.987Z,2.73
2019-04-07T21:09:33.363Z,5.50
2019-04-07T21:12:49.456Z,4.13
2019-04-07T21:16:08.214Z,4.70
2019-04-07T21:19:38.824Z,4.60
2019-04-07T21:23:05.987Z,5.50
2019-04-07T21:26:42.671Z,5.30
2019-04-07T21:30:14.697Z,5.00
2019-04-07T21:33:44.478Z,6.03
2019-04-07T21:37:23.942Z,4.50
2019-04-07T21:40:48.281Z,4.97
2019-04-07T21:44:13.480Z,4.97
2019-04-07T21:47:36.756Z,5.43
2019-04-07T21:51:04.430Z,5.20
2019-04-07T21:54:19.619Z,5.53
2019-04-07T21:57:53.532Z,4.50
2019-04-07T22:01:08.178Z,6.57
2019-04-07T22:04:22.916Z,5.70
2019-04-07T22:07:46.174Z,4.80
2019-04-07T22:10:52.224Z,5.70
2019-04-07T22:13:57.758Z,5.30
2019-04-07T22:17:03.034Z,5.30
2019-04-07T22:20:08.948Z,4.90
2019-04-07T22:23:14.612Z,4.77
2019-04-07T22:26:20.393Z,4.40
2019-04-07T22:29:26.609Z,4.30
2019-04-07T22:32:31.981Z,4.93
2019-04-07T22:35:40.138Z,3.80
2019-04-07T22:38:44.428Z,4.20
2019-04-07T22:41:50.458Z,4.10
2019-04-07T22:44:56.657Z,4.20
2019-04-07T22:48:01.841Z,4.30
2019-04-07T22:51:11.195Z,4.17
2019-04-07T22:54:14.069Z,3.10
2019-04-07T22:57:19.759Z,3.80
2019-04-07T23:00:26.784Z,3.17
2019-04-07T23:03:32.511Z,2.63
2019-04-07T23:06:38.323Z,2.83
2019-04-07T23:09:43.567Z,2.40
2019-04-07T23:12:48.711Z,2.03
2019-04-07T23:16:05.984Z,2.50
2019-04-07T23:19:00.838Z,2.80
2019-04-07T23:22:06.094Z,3.03
2019-04-07T23:25:12.458Z,2.70
2019-04-07T23:28:17.665Z,2.80
2019-04-07T23:31:23.610Z,3.07
2019-04-07T23:34:28.808Z,3.67
2019-04-07T23:37:36.953Z,3.77
2019-04-07T23:40:42.374Z,3.50
2019-04-07T23:43:47.496Z,3.37
2019-04-07T23:46:53.016Z,4.00
2019-04-07T23:49:58.675Z,3.50
2019-04-07T23:53:40.727Z,3.67
2019-04-07T23:56:46.162Z,3.57
2019-04-07T23:59:51.465Z,3.13
